Time;durP1;ratioP1;P1;durP2;ratioP2;P2;SDS_P1;SDS_P2;PMS_P1;PMS_P2;Temp;Humidity;BMP_temperature;BMP_pressure;BME280_temperature;BME280_humidity;BME280_pressure;Samples;Min_cycle;Max_cycle;Signal;HPM_P1;HPM_P2
2022/11/17 00:00:40;;;;;;;18.27;10.30;;;7.90;99.90;;;;;;5055964;28;20044;-69
2022/11/17 00:03:17;;;;;;;15.70;8.93;;;7.90;99.90;;;;;;5038208;28;20025;-69
2022/11/17 00:05:45;;;;;;;22.33;8.88;;;7.90;99.90;;;;;;5056452;28;20021;-69
2022/11/17 00:08:12;;;;;;;19.27;9.50;;;7.80;99.90;;;;;;5040393;28;20017;-69
2022/11/17 00:10:39;;;;;;;17.90;10.15;;;7.80;99.90;;;;;;5059623;28;20329;-69
2022/11/17 00:15:54;;;;;;;17.52;8.90;;;7.80;99.90;;;;;;5060104;28;20447;-69
2022/11/17 00:21:20;;;;;;;13.25;7.72;;;7.80;99.90;;;;;;5059734;28;20036;-69
2022/11/17 00:23:48;;;;;;;13.20;7.57;;;7.80;99.90;;;;;;5059736;28;20401;-69
2022/11/17 00:26:17;;;;;;;21.75;7.50;;;7.80;99.90;;;;;;5059367;28;20116;-69
2022/11/17 00:28:46;;;;;;;16.77;8.38;;;7.80;99.90;;;;;;5060017;28;20021;-69
2022/11/17 00:34:06;;;;;;;13.98;7.53;;;7.70;99.90;;;;;;5059094;28;20063;-69
2022/11/17 00:36:45;;;;;;;12.82;7.68;;;7.70;99.90;;;;;;5059806;28;20033;-69
2022/11/17 00:39:14;;;;;;;14.60;7.53;;;7.70;99.90;;;;;;5059093;28;20021;-69
2022/11/17 00:41:41;;;;;;;16.10;8.15;;;7.70;99.90;;;;;;5060197;28;20329;-69
2022/11/17 00:44:08;;;;;;;14.52;8.40;;;7.70;99.90;;;;;;5041258;28;20060;-69
2022/11/17 00:46:37;;;;;;;14.10;7.60;;;7.70;99.90;;;;;;5059066;28;20352;-69
2022/11/17 00:49:08;;;;;;;17.02;7.53;;;7.70;99.90;;;;;;5059419;28;20028;-69
2022/11/17 00:51:36;;;;;;;13.65;7.65;;;7.70;99.90;;;;;;5059163;28;20033;-69
2022/11/17 00:54:05;;;;;;;14.77;8.38;;;7.70;99.90;;;;;;5058718;28;20080;-69
2022/11/17 00:56:33;;;;;;;14.13;7.60;;;7.70;99.90;;;;;;5059311;28;20029;-69
2022/11/17 00:59:00;;;;;;;11.85;7.45;;;7.70;99.90;;;;;;5041033;28;20317;-69
2022/11/17 01:01:28;;;;;;;17.02;7.40;;;7.70;99.90;;;;;;5058679;28;20028;-69
2022/11/17 01:04:02;;;;;;;13.70;6.78;;;7.70;99.90;;;;;;5058622;28;20032;-68
2022/11/17 01:06:45;;;;;;;12.60;7.38;;;7.60;99.90;;;;;;5058593;28;20048;-69
2022/11/17 01:09:15;;;;;;;12.23;7.60;;;7.70;99.90;;;;;;5058784;28;20024;-69
2022/11/17 01:11:43;;;;;;;12.05;7.43;;;7.70;99.90;;;;;;5058515;28;20025;-69
2022/11/17 01:14:18;;;;;;;11.98;7.80;;;7.60;99.90;;;;;;5059358;28;20333;-69
2022/11/17 01:16:45;;;;;;;15.85;8.20;;;7.70;99.90;;;;;;5058844;28;20032;-69
2022/11/17 01:19:13;;;;;;;15.45;7.80;;;7.60;99.90;;;;;;5057708;28;20317;-69
2022/11/17 01:21:41;;;;;;;14.07;6.90;;;7.60;99.90;;;;;;5058342;28;20321;-69
2022/11/17 01:24:10;;;;;;;12.75;6.25;;;7.60;99.90;;;;;;5058501;28;20360;-69
2022/11/17 01:26:38;;;;;;;13.20;7.72;;;7.60;99.90;;;;;;5058441;28;20017;-69
2022/11/17 01:29:06;;;;;;;13.32;7.60;;;7.60;99.90;;;;;;5058756;28;20021;-69
2022/11/17 01:31:40;;;;;;;16.48;7.03;;;7.60;99.90;;;;;;5058178;28;20116;-69
2022/11/17 01:34:07;;;;;;;13.00;7.00;;;7.60;99.90;;;;;;5057983;28;20021;-69
2022/11/17 01:39:27;;;;;;;10.85;6.68;;;7.60;99.90;;;;;;5058287;28;20367;-69
2022/11/17 01:41:55;;;;;;;10.90;6.75;;;7.60;99.90;;;;;;5057904;28;20021;-69
2022/11/17 01:45:14;;;;;;;9.50;5.63;;;7.60;99.90;;;;;;5058427;28;20025;-69
2022/11/17 01:47:51;;;;;;;10.90;5.55;;;7.60;99.90;;;;;;5023933;28;20120;-69
2022/11/17 01:50:26;;;;;;;9.45;5.30;;;7.60;99.90;;;;;;5058060;28;20364;-69
2022/11/17 01:52:58;;;;;;;9.07;5.57;;;7.60;99.90;;;;;;5057980;28;20045;-69
2022/11/17 01:55:55;;;;;;;7.53;5.00;;;7.60;99.90;;;;;;5057522;28;20033;-69
2022/11/17 01:58:32;;;;;;;;;;;7.60;99.90;;;;;;5056117;28;20444;-69
2022/11/17 02:00:59;;;;;;;9.23;5.60;;;7.60;99.90;;;;;;5057573;28;20362;-69
2022/11/17 02:03:29;;;;;;;7.70;4.85;;;7.50;99.90;;;;;;5057667;28;20476;-69
2022/11/17 02:06:12;;;;;;;7.53;4.78;;;7.50;99.90;;;;;;5057494;28;20013;-69
2022/11/17 02:08:42;;;;;;;6.70;5.03;;;7.50;99.90;;;;;;5057584;28;20104;-69
2022/11/17 02:11:15;;;;;;;9.55;5.10;;;7.50;99.90;;;;;;5057334;28;20027;-69
2022/11/17 02:13:42;;;;;;;8.45;5.22;;;7.50;99.90;;;;;;5057215;28;20044;-69
2022/11/17 02:16:14;;;;;;;6.30;4.60;;;7.50;99.90;;;;;;5057130;28;20417;-69
2022/11/17 02:18:45;;;;;;;9.23;5.47;;;7.50;99.90;;;;;;5057324;28;20021;-69
2022/11/17 02:22:00;;;;;;;8.10;4.72;;;7.50;99.90;;;;;;5039449;28;20080;-69
2022/11/17 02:24:53;;;;;;;8.23;4.32;;;7.50;99.90;;;;;;5034772;28;20047;-69
2022/11/17 02:27:36;;;;;;;8.18;5.72;;;7.50;99.90;;;;;;5039541;28;20017;-69
2022/11/17 02:30:12;;;;;;;9.57;4.70;;;7.50;99.90;;;;;;5057256;28;20348;-69
2022/11/17 02:33:02;;;;;;;7.45;4.80;;;7.50;99.90;;;;;;5056713;28;20013;-69
2022/11/17 02:35:45;;;;;;;10.93;4.72;;;7.50;99.90;;;;;;5057138;28;20056;-69
2022/11/17 02:38:44;;;;;;;8.00;4.50;;;7.50;99.90;;;;;;5057584;28;20056;-69
2022/11/17 02:41:36;;;;;;;10.00;5.07;;;7.50;99.90;;;;;;5057122;28;20021;-69
2022/11/17 02:44:10;;;;;;;8.85;4.75;;;7.50;99.90;;;;;;5057333;28;20028;-69
2022/11/17 02:47:01;;;;;;;7.95;4.63;;;7.50;99.90;;;;;;5039239;28;20071;-69
2022/11/17 02:49:37;;;;;;;8.85;4.45;;;7.50;99.90;;;;;;5056975;28;20021;-69
2022/11/17 02:52:05;;;;;;;7.40;4.50;;;7.50;99.90;;;;;;5056730;28;20044;-69
2022/11/17 02:54:33;;;;;;;9.52;5.22;;;7.50;99.90;;;;;;5056467;28;20441;-69
2022/11/17 02:57:00;;;;;;;7.05;4.32;;;7.50;99.90;;;;;;5057069;28;20424;-69
2022/11/17 02:59:39;;;;;;;7.05;4.55;;;7.50;99.90;;;;;;5038892;28;20025;-69
2022/11/17 03:02:34;;;;;;;7.82;4.85;;;7.50;99.90;;;;;;5057044;28;20405;-69
2022/11/17 03:05:14;;;;;;;8.98;5.75;;;7.50;99.90;;;;;;5057039;28;20059;-68
2022/11/17 03:08:10;;;;;;;11.60;5.28;;;7.50;99.90;;;;;;5056655;28;20021;-69
2022/11/17 03:10:51;;;;;;;8.40;4.78;;;7.50;99.90;;;;;;5056815;28;20032;-69
2022/11/17 03:13:26;;;;;;;6.90;4.97;;;7.50;99.90;;;;;;5056571;28;20029;-69
2022/11/17 03:16:15;;;;;;;5.45;3.95;;;7.50;99.90;;;;;;5038695;28;20047;-68
2022/11/17 03:19:02;;;;;;;6.32;3.28;;;7.40;99.90;;;;;;5056359;28;20020;-69
2022/11/17 03:21:41;;;;;;;8.50;4.50;;;7.40;99.90;;;;;;5038657;28;20305;-69
2022/11/17 03:24:18;;;;;;;5.13;3.92;;;7.40;99.90;;;;;;5056345;28;20025;-69
2022/11/17 03:26:57;;;;;;;8.05;4.55;;;7.40;99.90;;;;;;5038658;28;20136;-69
2022/11/17 03:29:29;;;;;;;6.72;3.55;;;7.40;99.90;;;;;;5056326;28;20555;-69
2022/11/17 03:32:05;;;;;;;6.80;3.83;;;7.40;99.90;;;;;;5056419;28;20045;-69
2022/11/17 03:34:39;;;;;;;8.48;4.65;;;7.30;99.90;;;;;;5056725;28;20348;-69
2022/11/17 03:37:10;;;;;;;7.82;4.28;;;7.30;99.90;;;;;;5038528;28;20035;-69
2022/11/17 03:39:46;;;;;;;7.43;3.60;;;7.30;99.90;;;;;;5056223;28;20417;-69
2022/11/17 03:42:18;;;;;;;7.38;3.83;;;7.30;99.90;;;;;;5057499;28;20025;-69
2022/11/17 03:44:58;;;;;;;7.05;4.47;;;7.30;99.90;;;;;;5042404;28;20033;-69
2022/11/17 03:47:27;;;;;;;5.40;3.60;;;7.30;99.90;;;;;;5060516;28;20025;-69
2022/11/17 03:50:01;;;;;;;6.80;3.58;;;7.20;99.90;;;;;;5042341;28;20029;-69
2022/11/17 03:52:30;;;;;;;7.10;3.28;;;7.20;99.90;;;;;;5060642;28;20029;-69
2022/11/17 03:54:57;;;;;;;5.43;3.60;;;7.20;99.90;;;;;;5059901;28;20112;-69
2022/11/17 03:58:03;;;;;;;6.13;3.92;;;7.20;99.90;;;;;;5042347;28;20013;-69
2022/11/17 04:00:32;;;;;;;4.82;3.33;;;7.20;99.90;;;;;;5042138;28;20017;-69
2022/11/17 04:02:59;;;;;;;5.88;3.83;;;7.20;99.90;;;;;;5059948;28;20044;-69
2022/11/17 04:05:27;;;;;;;6.00;3.40;;;7.10;99.90;;;;;;5060323;28;20017;-69
2022/11/17 04:07:54;;;;;;;6.60;3.40;;;7.10;99.90;;;;;;5060047;28;20419;-68
2022/11/17 04:10:24;;;;;;;6.47;3.58;;;7.10;99.90;;;;;;5060188;28;20067;-69
2022/11/17 04:18:24;;;;;;;6.45;3.80;;;7.10;99.90;;;;;;5059572;28;19931;-69
2022/11/17 04:20:53;;;;;;;9.82;3.97;;;7.00;99.90;;;;;;5041740;28;20075;-69
2022/11/17 04:23:21;;;;;;;7.43;4.07;;;7.00;99.90;;;;;;5059411;28;20413;-69
2022/11/17 04:28:43;;;;;;;7.88;4.53;;;6.90;99.90;;;;;;5059355;28;20144;-69
2022/11/17 04:31:25;;;;;;;7.32;4.53;;;6.90;99.90;;;;;;5041617;28;20415;-69
2022/11/17 04:33:55;;;;;;;7.07;4.75;;;6.90;99.90;;;;;;5041562;28;20025;-69
2022/11/17 04:36:28;;;;;;;5.65;3.90;;;6.90;99.90;;;;;;5041487;28;20028;-69
2022/11/17 04:38:57;;;;;;;8.43;4.90;;;6.90;99.90;;;;;;5059870;28;20017;-69
2022/11/17 04:44:14;;;;;;;8.73;4.85;;;6.80;99.90;;;;;;5059056;28;20055;-68
2022/11/17 04:46:46;;;;;;;8.30;4.18;;;6.80;99.90;;;;;;5059181;28;20032;-69
2022/11/17 04:49:15;;;;;;;7.88;5.22;;;6.70;99.90;;;;;;5041122;28;20049;-69
2022/11/17 04:51:42;;;;;;;8.35;4.95;;;6.70;99.90;;;;;;5058925;28;20043;-69
2022/11/17 04:54:11;;;;;;;7.82;5.13;;;6.70;99.90;;;;;;5067987;28;20041;-69
2022/11/17 04:56:39;;;;;;;14.57;6.78;;;6.70;99.90;;;;;;5079566;28;20025;-69
2022/11/17 04:59:07;;;;;;;10.00;4.47;;;6.60;99.90;;;;;;5079047;28;20019;-68
2022/11/17 05:01:34;;;;;;;8.00;5.03;;;6.60;99.90;;;;;;5078828;28;20061;-68
2022/11/17 05:04:13;;;;;;;9.23;5.30;;;6.60;99.90;;;;;;5078533;28;20033;-69
2022/11/17 05:06:43;;;;;;;12.50;5.15;;;6.60;99.90;;;;;;5077773;28;20024;-69
2022/11/17 05:09:13;;;;;;;7.57;4.30;;;6.60;99.90;;;;;;5078656;28;20024;-69
2022/11/17 05:14:28;;;;;;;;;;;6.50;99.90;;;;;;5078902;28;20446;-68
2022/11/17 05:17:07;;;;;;;7.32;4.50;;;6.50;99.90;;;;;;5078610;28;19911;-69
2022/11/17 05:19:43;;;;;;;7.75;5.28;;;6.40;99.90;;;;;;5079035;28;20025;-69
2022/11/17 05:24:59;;;;;;;6.55;3.63;;;6.40;99.90;;;;;;5078332;28;20059;-69
2022/11/17 05:27:26;;;;;;;6.45;4.43;;;6.40;99.90;;;;;;5078981;28;20021;-69
2022/11/17 05:29:54;;;;;;;6.38;3.83;;;6.40;99.90;;;;;;5078174;28;20025;-69
2022/11/17 05:32:21;;;;;;;7.90;4.15;;;6.40;99.90;;;;;;5078620;28;20025;-69
2022/11/17 05:34:49;;;;;;;6.55;4.13;;;6.40;99.90;;;;;;5078302;28;20024;-69
2022/11/17 05:37:16;;;;;;;7.55;4.13;;;6.30;99.90;;;;;;5078396;28;20073;-69
2022/11/17 05:39:44;;;;;;;6.82;3.72;;;6.30;99.90;;;;;;5078579;28;20028;-69
2022/11/17 05:42:11;;;;;;;6.72;3.85;;;6.30;99.90;;;;;;5076851;28;20016;-69
2022/11/17 05:44:39;;;;;;;5.53;3.40;;;6.30;99.90;;;;;;5076807;28;20063;-68
2022/11/17 05:47:06;;;;;;;8.00;3.85;;;6.30;99.90;;;;;;5078104;28;20021;-68
2022/11/17 05:49:34;;;;;;;5.70;3.90;;;6.30;99.90;;;;;;5076703;28;20052;-69
2022/11/17 05:52:01;;;;;;;4.95;3.20;;;6.30;99.90;;;;;;5078311;28;20032;-69
2022/11/17 05:54:28;;;;;;;6.97;4.40;;;6.30;99.90;;;;;;5059484;28;20045;-69
2022/11/17 05:57:12;;;;;;;6.95;3.53;;;6.30;99.90;;;;;;5057648;28;20028;-68
2022/11/17 05:59:49;;;;;;;6.68;3.50;;;6.30;99.90;;;;;;5057885;28;20021;-68
2022/11/17 06:02:35;;;;;;;5.57;3.17;;;6.30;99.90;;;;;;5057502;28;20013;-68
2022/11/17 06:05:03;;;;;;;11.43;4.07;;;6.30;99.90;;;;;;5057369;28;20417;-69
2022/11/17 06:07:31;;;;;;;5.65;3.88;;;6.30;99.90;;;;;;5057451;28;20023;-69
2022/11/17 06:09:59;;;;;;;5.55;3.75;;;6.30;99.90;;;;;;5057431;28;20159;-69
2022/11/17 06:12:27;;;;;;;9.02;3.65;;;6.20;99.90;;;;;;5057391;28;20029;-69
2022/11/17 06:14:54;;;;;;;4.75;3.00;;;6.20;99.90;;;;;;5057756;28;20086;-69
2022/11/17 06:17:33;;;;;;;5.40;2.85;;;6.20;99.90;;;;;;5057172;28;20048;-69
2022/11/17 06:20:18;;;;;;;5.43;3.05;;;6.20;99.90;;;;;;5057448;28;20021;-69
2022/11/17 06:22:46;;;;;;;4.70;2.78;;;6.20;99.90;;;;;;5057247;28;20095;-69
2022/11/17 06:25:14;;;;;;;4.53;2.65;;;6.10;99.90;;;;;;5057659;28;20029;-69
2022/11/17 06:27:41;;;;;;;6.00;2.78;;;6.10;99.90;;;;;;5057079;28;20055;-68
2022/11/17 06:30:09;;;;;;;3.35;2.08;;;6.10;99.90;;;;;;5057609;28;20035;-69
2022/11/17 06:32:38;;;;;;;4.18;2.08;;;6.10;99.90;;;;;;5039261;28;20029;-69
2022/11/17 06:35:08;;;;;;;3.58;2.25;;;6.10;99.90;;;;;;5056888;28;20021;-69
2022/11/17 06:37:36;;;;;;;4.47;2.30;;;6.10;99.90;;;;;;5056921;28;20017;-69
2022/11/17 06:40:04;;;;;;;4.53;2.58;;;6.00;99.90;;;;;;5057378;28;20017;-69
2022/11/17 06:45:17;;;;;;;4.60;2.25;;;6.00;99.90;;;;;;5056781;28;20036;-69
2022/11/17 06:47:45;;;;;;;5.45;2.42;;;6.00;99.90;;;;;;5038998;28;20066;-68
2022/11/17 06:50:13;;;;;;;3.15;2.45;;;6.00;99.90;;;;;;5039025;28;20025;-68
2022/11/17 06:52:40;;;;;;;2.83;1.85;;;6.00;99.90;;;;;;5056551;28;20041;-69
2022/11/17 06:55:08;;;;;;;4.25;2.33;;;6.00;99.90;;;;;;5057118;28;20091;-68
2022/11/17 06:57:35;;;;;;;4.85;2.00;;;6.00;99.90;;;;;;5039014;28;20025;-70
2022/11/17 07:00:03;;;;;;;7.40;3.30;;;6.00;99.90;;;;;;5056622;28;20052;-69
2022/11/17 07:02:31;;;;;;;8.32;2.00;;;6.00;99.90;;;;;;5056384;28;20021;-71
2022/11/17 07:04:58;;;;;;;4.30;1.92;;;6.00;99.90;;;;;;5038786;28;20025;-72
2022/11/17 07:07:26;;;;;;;3.40;1.83;;;6.00;99.90;;;;;;5057041;28;20409;-72
2022/11/17 07:09:53;;;;;;;3.15;1.90;;;6.00;99.90;;;;;;5056474;28;20028;-72
2022/11/17 07:12:21;;;;;;;3.85;2.00;;;6.00;99.90;;;;;;5056450;28;20324;-71
2022/11/17 07:14:48;;;;;;;3.90;2.03;;;6.00;99.90;;;;;;5056261;28;20025;-70
2022/11/17 07:17:15;;;;;;;15.13;2.70;;;6.00;99.90;;;;;;5055764;28;20025;-71
2022/11/17 07:19:43;;;;;;;3.90;2.58;;;6.00;99.90;;;;;;5056516;28;20023;-73
2022/11/17 07:22:16;;;;;;;5.63;2.17;;;6.00;99.90;;;;;;5056898;28;20017;-71
2022/11/17 07:24:44;;;;;;;3.08;1.95;;;6.00;99.90;;;;;;5038649;28;20028;-74
2022/11/17 07:27:11;;;;;;;4.57;2.20;;;6.00;99.90;;;;;;5038627;28;20067;-71
2022/11/17 07:29:39;;;;;;;3.95;2.35;;;6.00;99.90;;;;;;5038564;28;20216;-71
2022/11/17 07:32:10;;;;;;;3.20;2.03;;;6.00;99.90;;;;;;5056405;28;20025;-71
2022/11/17 07:34:38;;;;;;;6.07;2.65;;;6.10;99.90;;;;;;5056188;28;20025;-71
2022/11/17 07:37:06;;;;;;;3.75;2.20;;;6.10;99.90;;;;;;5056492;28;20105;-71
2022/11/17 07:39:33;;;;;;;3.08;1.92;;;6.10;99.90;;;;;;5056100;28;20025;-70
2022/11/17 07:42:00;;;;;;;3.03;2.00;;;6.10;99.90;;;;;;5056313;28;20048;-70
2022/11/17 07:44:28;;;;;;;3.33;2.00;;;6.10;99.90;;;;;;5056664;28;20035;-70
2022/11/17 07:46:55;;;;;;;3.75;2.20;;;6.10;99.90;;;;;;5056073;28;20428;-70
2022/11/17 07:49:23;;;;;;;4.43;1.73;;;6.10;99.90;;;;;;5056068;28;20021;-70
2022/11/17 07:51:52;;;;;;;3.33;2.08;;;6.20;99.90;;;;;;5056794;28;20051;-70
2022/11/17 07:54:19;;;;;;;3.05;1.65;;;6.20;99.90;;;;;;5055909;28;20052;-71
2022/11/17 07:56:47;;;;;;;2.72;1.60;;;6.20;99.90;;;;;;5056059;28;20017;-71
2022/11/17 07:59:15;;;;;;;2.45;1.58;;;6.20;99.90;;;;;;5055941;28;20028;-71
2022/11/17 08:01:43;;;;;;;4.00;1.80;;;6.20;99.90;;;;;;5056106;28;20100;-71
2022/11/17 08:04:11;;;;;;;2.72;1.77;;;6.20;99.90;;;;;;5055855;28;20029;-69
2022/11/17 08:06:38;;;;;;;2.67;1.67;;;6.30;99.90;;;;;;5055989;28;20112;-71
2022/11/17 08:09:09;;;;;;;9.52;2.63;;;6.20;99.90;;;;;;5056417;28;20021;-71
2022/11/17 08:11:39;;;;;;;7.28;2.95;;;6.30;99.90;;;;;;5056767;28;20103;-70
2022/11/17 08:14:07;;;;;;;3.55;2.10;;;6.30;99.90;;;;;;5056329;28;20052;-72
2022/11/17 08:16:34;;;;;;;3.55;1.80;;;6.30;99.90;;;;;;5055832;28;20491;-71
2022/11/17 08:19:04;;;;;;;4.28;1.95;;;6.30;99.90;;;;;;5055684;28;20029;-71
2022/11/17 08:21:38;;;;;;;4.03;1.80;;;6.30;99.90;;;;;;5056243;28;20021;-71
2022/11/17 08:24:06;;;;;;;4.32;2.50;;;6.30;99.90;;;;;;5055762;28;20025;-70
2022/11/17 08:26:33;;;;;;;4.18;2.17;;;6.30;99.90;;;;;;5055742;28;20033;-71
2022/11/17 08:29:01;;;;;;;3.85;2.10;;;6.40;99.90;;;;;;5056226;28;20364;-71
2022/11/17 08:31:29;;;;;;;3.10;1.88;;;6.40;99.90;;;;;;5059307;28;20025;-70
2022/11/17 08:33:57;;;;;;;3.10;1.92;;;6.40;99.90;;;;;;5059355;28;20017;-71
2022/11/17 08:36:24;;;;;;;3.92;1.73;;;6.40;99.90;;;;;;5059791;28;20041;-71
2022/11/17 08:38:51;;;;;;;3.92;1.90;;;6.40;99.90;;;;;;5059226;28;20043;-71
2022/11/17 08:41:20;;;;;;;3.45;1.90;;;6.50;99.90;;;;;;5059126;28;20103;-70
2022/11/17 08:43:49;;;;;;;2.75;1.52;;;6.50;99.90;;;;;;5059547;28;20020;-71
2022/11/17 08:46:16;;;;;;;3.00;1.65;;;6.50;99.90;;;;;;5059030;28;20017;-70
2022/11/17 08:48:44;;;;;;;1.73;1.15;;;6.50;99.90;;;;;;5059056;28;20017;-71
2022/11/17 08:51:12;;;;;;;2.75;1.75;;;6.60;99.90;;;;;;5058974;28;20041;-71
2022/11/17 08:53:40;;;;;;;2.08;1.25;;;6.60;99.90;;;;;;5059094;28;20340;-71
2022/11/17 08:56:09;;;;;;;2.80;1.73;;;6.70;99.90;;;;;;5058835;28;20431;-71
2022/11/17 08:58:44;;;;;;;2.97;1.50;;;6.60;99.90;;;;;;5041159;28;20033;-71
2022/11/17 09:01:14;;;;;;;2.22;1.10;;;6.70;99.90;;;;;;5059317;28;20049;-71
2022/11/17 09:03:46;;;;;;;2.08;1.27;;;6.70;99.90;;;;;;5041118;28;20163;-71
2022/11/17 09:06:15;;;;;;;2.67;1.23;;;6.70;99.90;;;;;;5058654;28;20028;-71
2022/11/17 09:08:43;;;;;;;2.50;1.58;;;6.70;99.90;;;;;;5040991;28;20021;-71
2022/11/17 09:11:13;;;;;;;2.85;1.70;;;6.80;99.90;;;;;;5059147;28;20340;-71
2022/11/17 09:13:41;;;;;;;4.63;2.85;;;6.80;99.90;;;;;;5059189;28;20523;-71
2022/11/17 09:16:10;;;;;;;4.68;1.90;;;6.80;99.90;;;;;;5040818;28;20363;-71
2022/11/17 09:18:39;;;;;;;4.18;1.15;;;6.80;99.90;;;;;;5040382;28;20429;-71
2022/11/17 09:21:09;;;;;;;2.55;1.40;;;6.80;99.90;;;;;;5058986;28;20033;-71
2022/11/17 09:23:37;;;;;;;2.65;1.35;;;6.80;99.90;;;;;;5040451;28;20374;-71
2022/11/17 09:26:08;;;;;;;2.55;1.65;;;6.80;99.90;;;;;;5040621;28;20025;-71
2022/11/17 09:28:37;;;;;;;3.00;1.40;;;6.80;99.90;;;;;;5058301;28;20414;-71
2022/11/17 09:31:12;;;;;;;2.55;1.30;;;6.80;99.90;;;;;;5058780;28;20476;-71
2022/11/17 09:33:41;;;;;;;3.03;1.45;;;6.80;99.90;;;;;;5058288;28;20325;-71
2022/11/17 09:36:09;;;;;;;3.53;1.40;;;6.80;99.90;;;;;;5058394;28;20044;-71
2022/11/17 09:38:37;;;;;;;2.35;1.40;;;6.80;99.90;;;;;;5040412;28;20027;-71
2022/11/17 09:41:50;;;;;;;2.75;1.40;;;6.90;99.90;;;;;;5039904;28;20025;-71
2022/11/17 09:44:40;;;;;;;3.67;1.45;;;6.90;99.90;;;;;;5047836;28;20094;-71
2022/11/17 09:47:13;;;;;;;2.08;1.33;;;6.90;99.90;;;;;;5039363;28;20414;-71
2022/11/17 09:50:13;;;;;;;2.95;1.40;;;7.00;99.90;;;;;;5040145;28;20032;-71
2022/11/17 09:53:16;;;;;;;2.03;1.30;;;6.90;99.90;;;;;;5043270;28;20045;-71
2022/11/17 09:55:55;;;;;;;2.83;1.23;;;7.00;99.90;;;;;;5076556;28;20025;-71
2022/11/17 09:58:32;;;;;;;2.33;1.40;;;7.00;99.90;;;;;;5076603;28;20115;-71
2022/11/17 10:01:01;;;;;;;3.17;1.45;;;7.00;99.90;;;;;;5077597;28;20321;-71
2022/11/17 10:03:33;;;;;;;2.15;1.25;;;7.00;99.90;;;;;;5077643;28;20063;-72
2022/11/17 10:06:06;;;;;;;2.72;1.55;;;7.00;99.90;;;;;;5076884;28;20491;-74
2022/11/17 10:08:36;;;;;;;3.15;1.45;;;6.90;99.90;;;;;;5077755;28;20484;-71
2022/11/17 10:11:30;;;;;;;2.25;1.40;;;6.90;99.90;;;;;;5077981;28;20095;-71
2022/11/17 10:13:58;;;;;;;2.65;1.52;;;6.90;99.90;;;;;;5077284;28;20056;-72
2022/11/17 10:16:26;;;;;;;4.30;1.63;;;6.80;99.90;;;;;;5076798;28;20017;-71
2022/11/17 10:18:54;;;;;;;2.75;1.55;;;6.90;99.90;;;;;;5076153;28;20021;-71
2022/11/17 10:21:21;;;;;;;2.83;1.50;;;6.80;99.90;;;;;;5076166;28;20025;-73
2022/11/17 10:23:58;;;;;;;2.42;1.55;;;6.80;99.90;;;;;;5077864;28;20135;-73
2022/11/17 10:26:26;;;;;;;2.97;1.65;;;6.70;99.90;;;;;;5077146;28;20028;-73
2022/11/17 10:29:13;;;;;;;5.18;1.63;;;6.70;99.90;;;;;;5076050;28;20494;-72
2022/11/17 10:31:45;;;;;;;2.90;1.60;;;6.70;99.90;;;;;;5076694;28;20025;-72
2022/11/17 10:34:34;;;;;;;4.28;1.60;;;6.70;99.90;;;;;;5076077;28;20028;-73
2022/11/17 10:37:21;;;;;;;3.83;1.80;;;6.60;99.90;;;;;;5077039;28;20100;-73
2022/11/17 10:39:49;;;;;;;3.10;1.60;;;6.60;99.90;;;;;;5076533;28;20025;-72
2022/11/17 10:42:26;;;;;;;2.15;1.35;;;6.70;99.90;;;;;;5075875;28;20412;-73
2022/11/17 10:44:57;;;;;;;3.42;1.70;;;6.70;99.90;;;;;;5077332;28;20052;-73
2022/11/17 10:47:33;;;;;;;2.50;1.55;;;6.70;99.90;;;;;;5076978;28;20028;-73
2022/11/17 10:50:26;;;;;;;2.08;1.30;;;6.80;99.90;;;;;;5076855;28;20024;-73
2022/11/17 10:53:15;;;;;;;2.47;1.65;;;6.80;99.90;;;;;;5071546;28;20047;-73
2022/11/17 10:55:43;;;;;;;2.42;1.40;;;6.90;99.90;;;;;;5058968;28;20428;-73
2022/11/17 10:58:29;;;;;;;2.70;1.30;;;6.90;99.90;;;;;;5076885;28;20032;-73
2022/11/17 11:01:02;;;;;;;3.88;1.75;;;6.90;99.90;;;;;;5075660;28;20107;-72
2022/11/17 11:03:32;;;;;;;2.50;1.42;;;6.90;99.90;;;;;;5077771;28;20428;-71
2022/11/17 11:06:03;;;;;;;3.10;2.00;;;7.00;99.90;;;;;;5059661;28;20032;-71
2022/11/17 11:09:09;;;;;;;3.03;1.30;;;7.10;99.90;;;;;;5077280;28;20059;-73
2022/11/17 11:11:42;;;;;;;9.93;4.30;;;7.10;99.90;;;;;;5065120;28;20048;-73
2022/11/17 11:14:29;;;;;;;4.28;2.13;;;7.20;99.90;;;;;;5076698;28;20036;-71
2022/11/17 11:16:56;;;;;;;2.20;1.30;;;7.20;99.90;;;;;;5056691;28;20048;-73
2022/11/17 11:19:24;;;;;;;3.38;1.30;;;7.30;99.90;;;;;;5076449;28;20100;-73
2022/11/17 11:22:19;;;;;;;2.47;1.05;;;7.30;99.90;;;;;;5060165;28;20434;-71
2022/11/17 11:25:37;;;;;;;2.60;1.30;;;7.40;99.90;;;;;;5058659;28;20029;-71
2022/11/17 11:28:21;;;;;;;5.72;1.60;;;7.40;99.90;;;;;;5035181;28;20040;-71
2022/11/17 11:31:06;;;;;;;3.58;2.20;;;7.40;99.90;;;;;;5075189;28;20379;-71
2022/11/17 11:33:51;;;;;;;3.15;1.65;;;7.40;99.90;;;;;;5076469;28;20024;-71
2022/11/17 11:36:54;;;;;;;2.53;1.40;;;7.40;99.90;;;;;;5076315;28;20025;-72
2022/11/17 11:39:43;;;;;;;3.13;1.52;;;7.40;99.90;;;;;;5076259;28;20462;-71
2022/11/17 11:42:38;;;;;;;2.58;1.67;;;7.50;99.90;;;;;;5058469;28;20104;-71
2022/11/17 11:45:39;;;;;;;2.60;1.40;;;7.50;99.90;;;;;;5077632;28;20027;-71
2022/11/17 11:48:23;;;;;;;3.13;1.77;;;7.60;99.90;;;;;;5076308;28;20024;-71
2022/11/17 11:51:21;;;;;;;2.60;1.52;;;7.50;99.90;;;;;;5076147;28;20013;-71
2022/11/17 11:54:10;;;;;;;2.28;1.58;;;7.60;99.90;;;;;;5083998;28;20044;-71
2022/11/17 11:56:48;;;;;;;3.72;1.60;;;7.50;99.90;;;;;;5078335;28;20374;-71
2022/11/17 11:59:21;;;;;;;4.07;2.70;;;7.50;99.90;;;;;;5096300;28;20026;-71
2022/11/17 12:02:19;;;;;;;4.45;2.80;;;7.50;99.90;;;;;;5078342;28;20052;-71
2022/11/17 12:04:49;;;;;;;6.22;2.90;;;7.50;99.90;;;;;;5097633;28;20069;-71
2022/11/17 12:07:28;;;;;;;4.88;2.95;;;7.50;99.90;;;;;;5100366;28;20099;-71
2022/11/17 12:10:11;;;;;;;2.88;1.67;;;7.60;99.90;;;;;;5082049;28;20111;-71
2022/11/17 12:12:39;;;;;;;2.70;1.52;;;7.60;99.90;;;;;;5100483;28;20324;-71
2022/11/17 12:15:10;;;;;;;2.30;1.52;;;7.60;99.90;;;;;;5099893;28;20347;-71
2022/11/17 12:18:02;;;;;;;1.88;1.00;;;7.60;99.90;;;;;;5100120;28;20023;-71
2022/11/17 12:20:42;;;;;;;3.83;1.38;;;7.60;99.90;;;;;;5100153;28;20032;-71
2022/11/17 12:23:32;;;;;;;2.58;1.55;;;7.60;99.90;;;;;;5100503;28;20120;-71
2022/11/17 12:26:01;;;;;;;2.83;1.35;;;7.50;99.90;;;;;;5081734;28;20024;-71
2022/11/17 12:28:31;;;;;;;3.53;1.50;;;7.50;99.90;;;;;;5100289;28;20028;-71
2022/11/17 12:31:03;;;;;;;2.80;1.50;;;7.40;99.90;;;;;;5100181;28;20049;-71
2022/11/17 12:33:52;;;;;;;2.45;1.38;;;7.40;99.90;;;;;;5081666;28;20114;-71
2022/11/17 12:36:33;;;;;;;2.85;1.75;;;7.30;99.90;;;;;;5100125;28;20035;-71
2022/11/17 12:39:09;;;;;;;3.50;1.65;;;7.30;99.90;;;;;;5100052;28;20073;-71
2022/11/17 12:42:09;;;;;;;2.85;1.65;;;7.30;99.90;;;;;;5099941;28;20035;-71
2022/11/17 12:44:37;;;;;;;2.58;1.50;;;7.30;99.90;;;;;;5075974;28;20036;-71
2022/11/17 12:47:36;;;;;;;3.25;1.90;;;7.20;99.90;;;;;;5099546;28;20023;-71
2022/11/17 12:50:31;;;;;;;4.38;2.38;;;7.20;99.90;;;;;;5081309;28;20068;-71
2022/11/17 12:53:20;;;;;;;3.80;2.65;;;7.20;99.90;;;;;;5099698;28;20125;-72
2022/11/17 12:56:15;;;;;;;2.47;1.63;;;7.30;99.90;;;;;;5099129;28;20100;-71
2022/11/17 12:58:48;;;;;;;3.15;1.63;;;7.20;99.90;;;;;;5099710;28;20020;-71
2022/11/17 13:01:37;;;;;;;3.25;2.40;;;7.20;99.90;;;;;;5099599;28;20021;-71
2022/11/17 13:04:34;;;;;;;8.82;4.60;;;7.30;99.90;;;;;;5099482;28;20020;-71
2022/11/17 13:07:05;;;;;;;3.95;2.35;;;7.30;99.90;;;;;;5099310;28;20016;-71
2022/11/17 13:09:35;;;;;;;4.75;3.17;;;7.50;99.90;;;;;;5080940;28;20054;-71
2022/11/17 13:12:04;;;;;;;5.10;2.65;;;7.50;99.90;;;;;;5098502;28;20020;-71
2022/11/17 13:14:35;;;;;;;8.20;3.88;;;7.60;99.90;;;;;;5098384;28;20020;-71
2022/11/17 13:17:03;;;;;;;4.38;2.80;;;7.60;99.90;;;;;;5098909;28;20055;-71
2022/11/17 13:19:37;;;;;;;3.03;2.33;;;7.60;99.90;;;;;;5080741;28;20023;-71
2022/11/17 13:22:17;;;;;;;2.35;1.48;;;7.60;99.90;;;;;;5098617;28;20027;-71
2022/11/17 13:24:49;;;;;;;2.78;1.83;;;7.60;99.90;;;;;;5098925;28;20046;-71
2022/11/17 13:27:44;;;;;;;2.55;1.70;;;7.70;99.90;;;;;;5099256;28;20078;-71
2022/11/17 13:30:31;;;;;;;3.72;2.00;;;7.70;99.90;;;;;;5080541;28;20086;-71
2022/11/17 13:33:02;;;;;;;3.75;2.40;;;7.70;99.90;;;;;;5080500;28;20024;-71
2022/11/17 13:35:35;;;;;;;4.15;2.60;;;7.70;99.90;;;;;;5098350;28;20067;-71
2022/11/17 13:38:20;;;;;;;3.45;2.10;;;7.70;99.90;;;;;;5098535;28;20386;-71
2022/11/17 13:40:50;;;;;;;3.13;1.95;;;7.70;99.90;;;;;;5080333;28;20438;-71
2022/11/17 13:43:20;;;;;;;4.47;1.88;;;7.70;99.90;;;;;;5098261;28;20052;-71
2022/11/17 13:45:48;;;;;;;2.40;1.67;;;7.70;99.90;;;;;;5098203;28;20020;-72
2022/11/17 13:48:38;;;;;;;3.28;2.10;;;7.70;99.90;;;;;;5098312;28;20396;-71
2022/11/17 13:51:37;;;;;;;2.67;1.50;;;7.70;99.90;;;;;;5098313;28;20293;-71
2022/11/17 13:54:05;;;;;;;3.35;2.10;;;7.60;99.90;;;;;;5097723;28;20048;-71
2022/11/17 13:56:54;;;;;;;2.47;1.50;;;7.60;99.90;;;;;;5080229;28;20367;-73
2022/11/17 13:59:36;;;;;;;7.32;3.65;;;7.60;99.90;;;;;;5097884;28;20016;-73
2022/11/17 14:02:19;;;;;;;8.45;4.97;;;7.60;99.90;;;;;;5079850;28;20438;-73
2022/11/17 14:05:16;;;;;;;5.53;3.38;;;7.50;99.90;;;;;;5098325;28;20024;-73